Creek Data

    Home     View Charts     View Raw Data     Messages

ID Distance Battery Voltage Battery Current Internal Temp Internal Humidity External Temp Solar Input rssi snr Time Stamp Record
67845 14.3 3.78 0 74 47 66 5.1 -71 7 03/03/2026 12:00 PM 50698
67844 14.4 3.78 0 74 47 66 5.1 -73 8 03/03/2026 11:45 AM 50697
67843 14.4 3.78 0 73 46 67 5.1 -71 8 03/03/2026 11:15 AM 50695
67842 14.4 3.78 0 73 46 65 5.1 -71 8 03/03/2026 11:00 AM 50694
67841 14.5 3.78 0 72 45 68 5.1 -71 8 03/03/2026 10:45 AM 50693
67840 14.4 3.88 0 69 46 70 5.1 -71 7 03/03/2026 10:30 AM 50692
67839 14.5 4.07 0 67 46 65 5.1 -70 7 03/03/2026 10:15 AM 50691
67838 14.4 3.91 0 66 46 65 5.1 -71 8 03/03/2026 10:00 AM 50690
67837 14.4 3.95 0 64 46 67 5.1 -71 7 03/03/2026 09:45 AM 50689
67836 14.4 3.83 0 61 47 63 5.1 -71 7 03/03/2026 09:30 AM 50688
67835 14.4 3.90 0 59 47 63 5.1 -71 8 03/03/2026 09:15 AM 50687
67834 14.4 3.88 0 57 47 64 5.1 -71 8 03/03/2026 09:00 AM 50686
67833 14.3 3.94 0 55 47 62 5.1 -71 8 03/03/2026 08:45 AM 50685
67832 14.2 3.98 0 53 48 59 5.1 -71 8 03/03/2026 08:30 AM 50684
67831 14.2 3.77 0 51 49 58 5.1 -73 7 03/03/2026 08:15 AM 50683
67830 14.2 3.77 0 48 50 52 5.1 -74 8 03/03/2026 08:00 AM 50682
67829 14.2 3.77 0 47 50 49 5.1 -73 8 03/03/2026 07:45 AM 50681
67828 14.2 3.85 30 45 51 47 4.5 -73 8 03/03/2026 07:30 AM 50680
67827 14.2 3.75 -8 44 52 46 4.5 -71 8 03/03/2026 07:15 AM 50679
67826 14.2 3.82 5 44 53 44 4.5 -72 8 03/03/2026 07:00 AM 50678
67825 14.2 3.76 -6 45 52 43 4.5 -71 8 03/03/2026 06:45 AM 50677
67824 14.2 3.76 -6 47 51 45 1.6 -71 8 03/03/2026 06:30 AM 50676
67823 14.1 3.61 -5 48 51 49 0.4 -71 8 03/03/2026 06:15 AM 50675
67822 14.1 3.61 -5 48 51 49 0.1 -70 8 03/03/2026 06:00 AM 50674
67821 14.1 3.61 -5 48 51 49 0 -71 8 03/03/2026 05:45 AM 50673